Norman Wells Airport
CYVQ : now visible

Airfield :











YOU CAN JOIN US ON...

 
LOGIN :

Register | Disclaimer

   EN    FR    IT 

 









Legend :    VFR   Marginal VFR   IFR   Intensive IFR   Very Intensive IFR
Visi :
Ceiling :
>= 8 km
>= 3000ft
5 to 8 km
1000 to 3000 ft
1500m to 5 km
500 to 1000 ft
800 to 1500m
200 to 500 ft
< 800m
< 200 ft
Symbols :   Thunderstorms  Fog  Heavy snow  Heavy precipitations  Wind > 20 kt







- Airport Elevation : 238 ft
- IATA code : YVQ


CYVQ - Norman Wells

CURRENT METAR :
  • 211000Z 11011G17KT 30SM SCT087 BKN130 BKN240 11/06 A2926 RMK AC3AC3CI1 SLP911 DENSITY ALT 600FT

EXPIRED METARs :
  • 210900Z 11014G24KT 30SM SCT089 BKN150 BKN240 12/06 A2925 RMK AC3AC3CI1 CI TR SLP909 DENSITY ALT 700FT
  • 210800Z 11019G30KT 30SM FEW086 BKN150 BKN240 12/05 A2929 RMK AC2AC4CI1 SLP921 DENSITY ALT 700FT

TAF TAF CYVQ
Valid from the 21 at 06:00 until the 21 at 18:00 UTC


210542Z 2106/2118 12015G25KT P6SM FEW080 SCT140 BKN180
TEMPO 2106/2109 SCT080 OVC140
FM210900 12015G25KT P6SM SCT050 BKN080
FM211500 12012G22KT P6SM BKN050 OVC080
TEMPO 2115/2118 P6SM -RA RMK NXT FCST BY 211200Z
No reported NOTAMs for that airfield.



MET'MAP, your aeronautical weather chart ! - Copyright ORBIFLY December 2007 - Disclaimer

ORBIFLY MET'MAP TEAM :

Programming & Development : Alexandra Zaïnal
Concept & Development : Baudouin d'Aumeries
Co-Development & Prog : Marc-Olivier Méhu
Technical & hardware support : Manuel Goepfert

Contact : metmap@orbifly.com




SOURCES & CREDITS :

   NOAA       Earth
Advisory